createdAt,value
2022-12-16T00:10:58.557Z,14.35
2022-12-16T00:16:05.772Z,16.48
2022-12-16T00:21:10.869Z,18.10
2022-12-16T00:26:16.690Z,15.07
2022-12-16T00:31:19.062Z,18.63
2022-12-16T00:36:24.911Z,15.45
2022-12-16T00:41:34.269Z,14.00
2022-12-16T00:46:36.231Z,14.63
2022-12-16T00:51:39.295Z,13.73
2022-12-16T00:56:41.693Z,14.18
2022-12-16T01:01:49.221Z,15.32
2022-12-16T01:06:51.567Z,14.18
2022-12-16T01:11:54.572Z,14.73
2022-12-16T01:16:57.417Z,15.25
2022-12-16T01:21:59.862Z,15.30
2022-12-16T01:27:02.611Z,12.70
2022-12-16T01:32:05.205Z,16.33
2022-12-16T01:37:08.103Z,15.95
2022-12-16T01:42:19.128Z,16.58
2022-12-16T01:47:33.851Z,16.88
2022-12-16T01:52:43.912Z,15.90
2022-12-16T01:57:55.170Z,15.65
2022-12-16T02:08:07.441Z,14.88
2022-12-16T02:13:34.495Z,15.23
2022-12-16T02:18:56.373Z,15.23
2022-12-16T02:24:10.277Z,16.67
2022-12-16T02:29:49.922Z,15.32
2022-12-16T02:35:27.282Z,16.15
2022-12-16T02:40:57.882Z,15.75
2022-12-16T02:46:15.158Z,15.10
2022-12-16T02:51:30.326Z,15.98
2022-12-16T02:56:54.362Z,16.25
2022-12-16T03:02:00.037Z,15.15
2022-12-16T03:07:04.607Z,15.85
2022-12-16T03:12:12.186Z,16.42
2022-12-16T03:17:18.145Z,14.82
2022-12-16T03:22:30.658Z,17.05
2022-12-16T03:28:00.821Z,16.02
2022-12-16T03:33:13.809Z,15.90
2022-12-16T03:38:16.583Z,16.23
2022-12-16T03:43:18.946Z,16.77
2022-12-16T03:48:26.651Z,16.00
2022-12-16T03:53:29.031Z,17.73
2022-12-16T03:58:31.436Z,15.43
2022-12-16T04:03:37.586Z,15.73
2022-12-16T04:08:40.079Z,14.80
2022-12-16T04:14:01.030Z,16.52
2022-12-16T04:19:21.949Z,16.85
2022-12-16T04:24:29.607Z,16.88
2022-12-16T04:29:32.504Z,14.75
2022-12-16T04:34:39.012Z,16.17
2022-12-16T04:39:59.752Z,14.70
2022-12-16T04:45:20.447Z,14.00
2022-12-16T04:50:41.167Z,13.23
2022-12-16T04:56:04.452Z,14.35
2022-12-16T05:01:25.918Z,14.75
2022-12-16T05:06:48.219Z,14.35
2022-12-16T05:12:11.693Z,14.80
2022-12-16T05:17:33.086Z,15.07
2022-12-16T05:22:58.249Z,13.23
2022-12-16T05:28:18.914Z,13.95
2022-12-16T05:33:39.674Z,15.43
2022-12-16T05:39:05.268Z,13.90
2022-12-16T05:44:28.520Z,15.52
2022-12-16T05:49:50.773Z,13.57
2022-12-16T05:55:11.892Z,13.68
2022-12-16T06:00:33.484Z,15.77
2022-12-16T06:06:00.894Z,13.35
2022-12-16T06:11:21.751Z,13.20
2022-12-16T06:16:42.806Z,17.55
2022-12-16T06:22:05.363Z,11.23
2022-12-16T06:27:27.471Z,12.93
2022-12-16T06:38:08.494Z,13.52
2022-12-16T06:43:29.123Z,12.43
2022-12-16T06:48:50.192Z,12.68
2022-12-16T06:54:11.474Z,12.02
2022-12-16T06:59:32.726Z,12.63
2022-12-16T07:04:53.728Z,11.43
2022-12-16T07:10:14.020Z,11.38
2022-12-16T07:15:35.211Z,10.02
2022-12-16T07:20:55.888Z,8.63
2022-12-16T07:26:24.395Z,10.80
2022-12-16T07:31:46.893Z,9.95
2022-12-16T07:43:39.970Z,10.55
2022-12-16T07:49:00.703Z,9.93
2022-12-16T07:54:21.575Z,9.20
2022-12-16T07:59:42.323Z,11.55
2022-12-16T08:05:03.111Z,11.73
2022-12-16T08:10:24.268Z,12.25
2022-12-16T08:15:44.869Z,12.70
2022-12-16T08:21:05.655Z,11.57
2022-12-16T08:26:26.421Z,12.18
2022-12-16T08:31:47.464Z,13.07
2022-12-16T08:37:08.309Z,22.15
2022-12-16T08:42:29.786Z,14.37
2022-12-16T08:47:50.607Z,14.30
2022-12-16T08:53:11.439Z,15.60
2022-12-16T08:58:32.072Z,13.68
2022-12-16T09:03:52.787Z,11.45
2022-12-16T09:09:13.731Z,12.88
2022-12-16T09:14:33.890Z,11.68
2022-12-16T09:19:54.130Z,12.60
2022-12-16T09:25:16.433Z,13.00
2022-12-16T09:30:37.260Z,14.57
2022-12-16T09:35:58.074Z,15.02
2022-12-16T09:41:43.027Z,11.07
2022-12-16T09:47:23.981Z,10.00
2022-12-16T09:52:50.369Z,10.43
2022-12-16T09:58:12.118Z,9.77
2022-12-16T10:03:42.611Z,9.15
2022-12-16T10:09:11.588Z,8.63
2022-12-16T10:14:39.070Z,7.25
2022-12-16T10:20:09.626Z,7.55
2022-12-16T10:25:49.812Z,8.60
2022-12-16T10:31:31.725Z,7.53
2022-12-16T10:36:55.266Z,9.55
2022-12-16T10:42:20.973Z,6.10
2022-12-16T10:47:41.477Z,6.13
2022-12-16T10:53:15.334Z,7.18
2022-12-16T10:59:04.400Z,6.28
2022-12-16T11:04:47.704Z,5.38
2022-12-16T11:10:08.666Z,6.05
2022-12-16T11:16:01.825Z,6.10
2022-12-16T11:21:33.132Z,7.22
2022-12-16T11:26:53.843Z,7.82
2022-12-16T11:32:16.864Z,5.90
2022-12-16T11:37:38.111Z,5.50
2022-12-16T11:43:15.497Z,6.00
2022-12-16T11:49:02.239Z,7.32
2022-12-16T11:54:43.959Z,8.02
2022-12-16T12:00:12.533Z,5.50
2022-12-16T12:05:33.250Z,8.23
2022-12-16T12:11:31.537Z,5.95
2022-12-16T12:17:02.532Z,5.82
2022-12-16T12:22:41.042Z,5.22
2022-12-16T12:28:11.011Z,5.57
2022-12-16T12:34:01.195Z,5.03
2022-12-16T12:39:40.595Z,5.50
2022-12-16T12:45:06.287Z,6.00
2022-12-16T12:50:37.977Z,6.72
2022-12-16T12:56:13.855Z,4.47
2022-12-16T13:01:38.430Z,4.72
2022-12-16T13:06:59.939Z,4.95
2022-12-16T13:12:26.216Z,12.10
2022-12-16T13:17:46.857Z,5.70
2022-12-16T13:23:07.814Z,6.20
2022-12-16T13:28:43.729Z,7.28
2022-12-16T13:34:10.210Z,11.27
2022-12-16T13:39:45.773Z,6.13
2022-12-16T13:45:06.405Z,6.53
2022-12-16T13:51:04.742Z,3.95
2022-12-16T13:56:25.988Z,3.83
2022-12-16T14:01:55.744Z,4.10
2022-12-16T14:07:24.675Z,14.98
2022-12-16T14:13:11.308Z,4.82
2022-12-16T14:18:48.138Z,4.50
2022-12-16T14:24:21.544Z,11.18
2022-12-16T14:29:47.721Z,6.75
2022-12-16T14:35:20.450Z,7.97
2022-12-16T14:40:51.636Z,21.70
2022-12-16T14:46:12.406Z,9.80
2022-12-16T14:51:41.665Z,6.13
2022-12-16T14:57:02.404Z,12.48
2022-12-16T15:02:47.589Z,9.20
2022-12-16T15:08:08.280Z,7.10
2022-12-16T15:13:37.183Z,5.47
2022-12-16T15:19:01.991Z,18.38
2022-12-16T15:24:27.052Z,8.60
2022-12-16T15:29:59.008Z,9.00
2022-12-16T15:35:19.766Z,8.77
2022-12-16T15:40:48.834Z,10.27
2022-12-16T15:46:10.262Z,21.67
2022-12-16T15:51:39.756Z,7.22
2022-12-16T15:57:04.703Z,6.88
2022-12-16T16:02:43.912Z,28.25
2022-12-16T16:08:05.999Z,46.90
2022-12-16T16:13:27.549Z,17.10
2022-12-16T16:18:47.749Z,11.40
2022-12-16T16:24:08.522Z,25.50
2022-12-16T16:29:29.238Z,7.30
2022-12-16T16:34:50.221Z,6.30
2022-12-16T16:40:10.954Z,4.85
2022-12-16T16:45:31.685Z,4.88
2022-12-16T16:50:52.407Z,6.40
2022-12-16T16:56:19.717Z,5.20
2022-12-16T17:01:41.136Z,5.15
2022-12-16T17:07:02.133Z,5.47
2022-12-16T17:12:39.442Z,5.40
2022-12-16T17:18:00.140Z,5.43
2022-12-16T17:23:21.167Z,5.25
2022-12-16T17:28:41.919Z,11.90
2022-12-16T17:34:02.876Z,9.77
2022-12-16T17:39:24.609Z,10.90
2022-12-16T17:44:45.497Z,7.13
2022-12-16T17:50:06.373Z,6.03
2022-12-16T17:55:27.546Z,5.38
2022-12-16T18:00:47.756Z,5.10
2022-12-16T18:06:08.401Z,4.82
2022-12-16T18:11:29.589Z,11.63
2022-12-16T18:16:50.256Z,9.30
2022-12-16T18:22:11.146Z,7.43
2022-12-16T18:27:31.828Z,7.30
2022-12-16T18:32:52.715Z,8.27
2022-12-16T18:38:16.572Z,6.53
2022-12-16T18:43:37.631Z,6.10
2022-12-16T18:48:58.445Z,8.93
2022-12-16T18:54:19.123Z,6.72
2022-12-16T18:59:40.057Z,6.25
2022-12-16T19:05:00.748Z,7.10
2022-12-16T19:10:21.530Z,7.53
2022-12-16T19:15:42.133Z,7.78
2022-12-16T19:21:02.866Z,6.93
2022-12-16T19:26:23.574Z,6.03
2022-12-16T19:31:46.238Z,6.30
2022-12-16T19:37:06.646Z,6.03
2022-12-16T19:42:27.718Z,6.43
2022-12-16T19:47:48.624Z,6.68
2022-12-16T19:53:09.394Z,6.75
2022-12-16T19:58:30.212Z,15.77
2022-12-16T20:03:52.397Z,12.65
2022-12-16T20:09:17.408Z,8.18
2022-12-16T20:14:38.114Z,7.85
2022-12-16T20:19:58.840Z,8.45
2022-12-16T20:25:19.581Z,10.13
2022-12-16T20:30:40.146Z,9.65
2022-12-16T20:36:00.944Z,9.35
2022-12-16T20:41:22.879Z,10.43
2022-12-16T20:46:44.152Z,12.57
2022-12-16T20:52:04.837Z,12.07
2022-12-16T20:57:25.754Z,13.23
2022-12-16T21:02:46.534Z,11.38
2022-12-16T21:08:07.558Z,12.05
2022-12-16T21:13:31.245Z,11.95
2022-12-16T21:18:51.832Z,10.75
2022-12-16T21:24:12.782Z,10.13
2022-12-16T21:29:33.569Z,9.25
2022-12-16T21:34:56.239Z,10.05
2022-12-16T21:40:17.212Z,9.98
2022-12-16T21:45:37.976Z,10.18
2022-12-16T21:50:59.181Z,9.80
2022-12-16T21:56:19.691Z,9.57
2022-12-16T22:01:40.485Z,11.57
2022-12-16T22:07:01.286Z,11.30
2022-12-16T22:12:22.345Z,10.43
2022-12-16T22:17:43.000Z,10.93
2022-12-16T22:23:03.801Z,9.40
2022-12-16T22:28:25.440Z,9.70
2022-12-16T22:33:46.304Z,8.70
2022-12-16T22:39:06.520Z,10.38
2022-12-16T22:44:28.617Z,9.45
2022-12-16T22:49:49.242Z,13.73
2022-12-16T22:55:09.795Z,9.75
2022-12-16T23:00:30.946Z,9.80
2022-12-16T23:05:51.054Z,10.00
2022-12-16T23:11:17.675Z,9.75
2022-12-16T23:16:49.026Z,10.35
2022-12-16T23:22:09.799Z,9.85
2022-12-16T23:27:29.997Z,11.00
2022-12-16T23:32:50.732Z,10.75
2022-12-16T23:38:18.751Z,10.13
2022-12-16T23:43:39.502Z,12.13
2022-12-16T23:49:00.539Z,11.50
2022-12-16T23:54:21.171Z,11.40
2022-12-16T23:59:42.079Z,10.55
